Time;durP1;ratioP1;P1;durP2;ratioP2;P2;SDS_P1;SDS_P2;PMS_P1;PMS_P2;Temp;Humidity;BMP_temperature;BMP_pressure;BME280_temperature;BME280_humidity;BME280_pressure;Samples;Min_cycle;Max_cycle;Signal;HPM_P1;HPM_P2
2021/08/29 00:00:09;;;;;;;4.88;0.98;;;15.60;99.90;;;;;;5075374;28;20110;-78
2021/08/29 00:02:36;;;;;;;3.78;1.30;;;15.70;99.90;;;;;;5091864;28;20036;-78
2021/08/29 00:05:03;;;;;;;11.98;6.00;;;15.60;99.90;;;;;;5061365;28;20048;-78
2021/08/29 00:07:29;;;;;;;7.05;3.65;;;15.70;99.90;;;;;;5088033;28;20039;-79
2021/08/29 00:09:56;;;;;;;5.22;2.50;;;15.70;99.90;;;;;;5067805;28;20048;-81
2021/08/29 00:12:22;;;;;;;5.13;1.50;;;15.70;99.90;;;;;;5084308;28;20024;-81
2021/08/29 00:14:49;;;;;;;5.90;1.52;;;15.70;99.90;;;;;;5086372;28;20039;-81
2021/08/29 00:17:15;;;;;;;4.20;1.13;;;15.70;99.90;;;;;;5052437;28;20036;-81
2021/08/29 00:19:42;;;;;;;6.15;1.23;;;15.70;99.90;;;;;;5093401;28;20035;-81
2021/08/29 00:22:08;;;;;;;4.45;1.17;;;15.70;99.90;;;;;;5057070;28;20059;-81
2021/08/29 00:24:37;;;;;;;3.47;1.30;;;15.70;99.90;;;;;;5075114;28;20047;-81
2021/08/29 00:27:04;;;;;;;4.40;1.10;;;15.80;99.90;;;;;;5071356;28;20490;-81
2021/08/29 00:29:31;;;;;;;4.43;1.08;;;15.70;99.90;;;;;;5056340;28;20071;-81
2021/08/29 00:31:57;;;;;;;4.65;1.42;;;15.70;99.90;;;;;;5085392;28;20509;-82
2021/08/29 00:34:24;;;;;;;4.22;1.35;;;15.70;99.90;;;;;;5095863;28;20043;-81
2021/08/29 00:36:52;;;;;;;3.33;1.10;;;15.80;99.90;;;;;;5062748;28;20028;-82
2021/08/29 00:39:18;;;;;;;6.32;1.85;;;15.70;99.90;;;;;;5053266;28;20051;-81
2021/08/29 00:41:45;;;;;;;8.80;1.60;;;15.80;99.90;;;;;;5051905;28;20048;-82
2021/08/29 00:44:12;;;;;;;5.53;1.45;;;15.80;99.90;;;;;;5067171;28;20032;-82
2021/08/29 00:46:40;;;;;;;4.03;1.20;;;15.80;99.90;;;;;;5050079;28;20510;-81
2021/08/29 00:49:09;;;;;;;4.82;1.30;;;15.80;99.90;;;;;;5027754;28;20407;-81
2021/08/29 00:51:35;;;;;;;7.25;1.55;;;15.80;99.90;;;;;;5049214;28;20154;-82
2021/08/29 00:54:02;;;;;;;4.97;1.17;;;15.80;99.90;;;;;;5065496;28;20423;-81
2021/08/29 00:56:29;;;;;;;9.88;2.45;;;15.80;99.90;;;;;;5050667;28;20032;-82
2021/08/29 00:58:57;;;;;;;5.97;1.52;;;15.80;99.90;;;;;;5049357;28;20040;-81
2021/08/29 01:01:36;;;;;;;5.38;1.30;;;15.80;99.90;;;;;;5049889;28;20036;-81
2021/08/29 01:04:07;;;;;;;3.00;1.00;;;15.80;99.90;;;;;;5064938;28;20047;-81
2021/08/29 01:06:40;;;;;;;5.82;1.58;;;15.80;99.90;;;;;;5048053;28;20059;-81
2021/08/29 01:09:20;;;;;;;6.45;1.13;;;15.80;99.90;;;;;;5049535;28;20024;-81
2021/08/29 01:11:52;;;;;;;5.75;1.40;;;15.80;99.90;;;;;;5068152;28;20035;-82
2021/08/29 01:14:31;;;;;;;8.35;1.48;;;15.80;99.90;;;;;;5068604;28;20040;-82
2021/08/29 01:17:00;;;;;;;4.20;1.15;;;15.90;99.90;;;;;;5032123;28;20079;-81
2021/08/29 01:19:41;;;;;;;5.05;1.23;;;15.90;99.90;;;;;;5049688;28;20041;-82
2021/08/29 01:22:10;;;;;;;4.53;1.40;;;15.90;99.90;;;;;;5068658;28;20039;-81
2021/08/29 01:24:38;;;;;;;6.60;1.60;;;15.90;99.90;;;;;;5051176;28;20044;-82
2021/08/29 01:27:13;;;;;;;4.40;1.60;;;15.90;99.90;;;;;;5018360;28;20634;-82
2021/08/29 01:29:40;;;;;;;5.03;1.75;;;15.90;99.90;;;;;;5057958;28;20040;-82
2021/08/29 01:32:10;;;;;;;5.05;1.48;;;15.90;99.90;;;;;;5051810;28;20039;-82
2021/08/29 01:34:42;;;;;;;5.53;1.33;;;15.90;99.90;;;;;;5035158;28;20056;-82
2021/08/29 01:37:44;;;;;;;;;;;15.90;99.90;;;;;;5052537;28;20055;-81
2021/08/29 01:40:14;;;;;;;7.38;1.92;;;15.90;99.90;;;;;;5032737;28;19916;-79
2021/08/29 01:42:42;;;;;;;6.63;1.40;;;15.90;99.90;;;;;;5032503;28;20064;-81
2021/08/29 01:45:10;;;;;;;7.65;2.67;;;15.90;99.90;;;;;;5065792;28;20034;-82
2021/08/29 01:47:40;;;;;;;10.57;4.55;;;15.90;99.90;;;;;;5047047;28;20040;-81
2021/08/29 01:50:10;;;;;;;7.38;3.90;;;15.90;99.90;;;;;;5048977;28;20071;-80
2021/08/29 01:52:40;;;;;;;7.32;2.70;;;15.90;99.90;;;;;;5061228;28;20036;-79
2021/08/29 01:55:35;;;;;;;7.57;2.03;;;15.90;99.90;;;;;;5073295;28;20044;-79
2021/08/29 01:58:15;;;;;;;6.05;1.65;;;15.90;99.90;;;;;;5055247;28;20044;-78
2021/08/29 02:00:57;;;;;;;5.97;1.90;;;15.90;99.90;;;;;;5070983;28;20032;-79
2021/08/29 02:03:27;;;;;;;6.60;1.63;;;15.90;99.90;;;;;;5051375;28;20040;-79
2021/08/29 02:06:28;;;;;;;6.57;1.60;;;15.90;99.90;;;;;;5070604;28;20471;-79
2021/08/29 02:09:01;;;;;;;5.22;1.48;;;16.00;99.90;;;;;;5037017;28;20039;-79
2021/08/29 02:11:34;;;;;;;4.93;1.58;;;16.00;99.90;;;;;;5069200;28;20040;-79
2021/08/29 02:14:04;;;;;;;4.88;1.90;;;16.00;99.90;;;;;;5037881;28;20087;-80
2021/08/29 02:16:40;;;;;;;5.25;1.45;;;15.90;99.90;;;;;;5070755;28;20040;-79
2021/08/29 02:19:07;;;;;;;7.20;2.38;;;16.00;99.90;;;;;;5068199;28;20057;-79
2021/08/29 02:21:35;;;;;;;6.50;1.90;;;16.00;99.90;;;;;;5038228;28;20047;-79
2021/08/29 02:24:04;;;;;;;4.40;1.58;;;15.90;99.90;;;;;;5054890;28;20040;-79
2021/08/29 02:26:31;;;;;;;5.22;1.75;;;15.90;99.90;;;;;;5052587;28;20070;-79
2021/08/29 02:29:09;;;;;;;4.70;1.95;;;16.00;99.90;;;;;;5053599;28;20290;-79
2021/08/29 02:31:37;;;;;;;6.47;1.55;;;15.90;99.90;;;;;;5067684;28;20059;-78
2021/08/29 02:34:04;;;;;;;6.22;1.73;;;15.90;99.90;;;;;;5070722;28;20505;-79
2021/08/29 02:36:31;;;;;;;4.20;1.38;;;15.90;99.90;;;;;;5050424;28;20431;-79
2021/08/29 02:39:01;;;;;;;4.30;1.58;;;15.90;99.90;;;;;;5068161;28;20040;-78
2021/08/29 02:41:30;;;;;;;9.35;2.00;;;15.90;99.90;;;;;;5036146;28;20062;-79
2021/08/29 02:43:59;;;;;;;4.75;1.60;;;15.90;99.90;;;;;;5053731;28;20044;-79
2021/08/29 02:46:26;;;;;;;6.15;1.88;;;15.90;99.90;;;;;;5087427;28;20032;-79
2021/08/29 02:48:53;;;;;;;9.77;2.10;;;16.00;99.90;;;;;;5036162;28;20044;-79
2021/08/29 02:51:22;;;;;;;5.38;1.92;;;16.00;99.90;;;;;;5053066;28;20414;-79
2021/08/29 02:53:54;;;;;;;6.20;2.28;;;16.00;99.90;;;;;;5052603;28;20055;-79
2021/08/29 02:56:21;;;;;;;6.72;2.22;;;16.00;99.90;;;;;;5053031;28;20040;-79
2021/08/29 02:59:01;;;;;;;5.95;2.50;;;16.00;99.90;;;;;;5071298;28;20047;-79
2021/08/29 03:01:33;;;;;;;7.80;2.50;;;16.00;99.90;;;;;;5071580;28;20032;-79
2021/08/29 03:04:22;;;;;;;6.43;3.00;;;16.00;99.90;;;;;;5067818;28;20047;-79
2021/08/29 03:06:49;;;;;;;7.05;2.75;;;16.00;99.90;;;;;;5051494;28;20043;-78
2021/08/29 03:09:16;;;;;;;7.43;3.17;;;16.00;99.90;;;;;;5064851;28;20028;-78
2021/08/29 03:11:47;;;;;;;10.02;4.32;;;16.10;99.90;;;;;;5065594;28;20039;-78
2021/08/29 03:14:30;;;;;;;9.23;5.28;;;16.10;99.90;;;;;;5024918;28;20048;-78
2021/08/29 03:16:57;;;;;;;9.63;6.10;;;16.10;99.90;;;;;;5050344;28;20043;-78
2021/08/29 03:19:49;;;;;;;15.98;7.85;;;16.10;99.90;;;;;;5067630;28;20032;-78
2021/08/29 03:22:30;;;;;;;13.70;7.40;;;16.00;99.90;;;;;;5050832;28;20059;-78
2021/08/29 03:24:58;;;;;;;12.55;7.82;;;15.90;99.90;;;;;;5034365;28;20053;-78
2021/08/29 03:27:25;;;;;;;18.60;8.77;;;15.80;99.90;;;;;;5050768;28;20055;-78
2021/08/29 03:29:51;;;;;;;15.45;8.65;;;15.70;99.90;;;;;;5061295;28;20036;-78
2021/08/29 03:32:20;;;;;;;15.35;9.05;;;15.70;99.90;;;;;;5063782;28;20028;-78
2021/08/29 03:34:50;;;;;;;18.80;10.27;;;15.60;99.90;;;;;;5003042;28;20063;-78
2021/08/29 03:37:18;;;;;;;18.58;11.07;;;15.60;99.90;;;;;;5040272;28;20051;-78
2021/08/29 03:39:48;;;;;;;15.88;10.35;;;15.60;99.90;;;;;;5068680;28;20383;-78
2021/08/29 03:42:18;;;;;;;22.73;12.10;;;15.60;99.90;;;;;;5027876;28;20044;-77
2021/08/29 03:44:47;;;;;;;17.88;11.18;;;15.60;99.90;;;;;;5068141;28;20660;-78
2021/08/29 03:47:14;;;;;;;15.75;9.60;;;15.60;99.90;;;;;;5064851;28;20051;-78
2021/08/29 03:49:42;;;;;;;17.02;10.50;;;15.60;99.90;;;;;;5048502;28;20036;-78
2021/08/29 03:52:13;;;;;;;16.60;9.82;;;15.60;99.90;;;;;;5052013;28;20043;-78
2021/08/29 03:55:03;;;;;;;13.48;8.85;;;15.60;99.90;;;;;;5069545;28;20040;-79
2021/08/29 03:57:32;;;;;;;12.25;8.30;;;15.60;99.90;;;;;;5066190;28;20043;-79
2021/08/29 03:59:59;;;;;;;15.70;8.18;;;15.60;99.90;;;;;;5085613;28;20036;-79
2021/08/29 04:02:26;;;;;;;14.90;8.20;;;15.60;99.90;;;;;;5068768;28;20426;-79
2021/08/29 04:04:52;;;;;;;15.30;6.82;;;15.60;99.90;;;;;;5087333;28;20043;-79
2021/08/29 04:07:20;;;;;;;9.20;6.07;;;15.60;99.90;;;;;;5065272;28;20040;-79
2021/08/29 04:10:03;;;;;;;9.65;5.50;;;15.70;99.90;;;;;;5053486;28;20032;-79
2021/08/29 04:12:33;;;;;;;11.95;4.90;;;15.70;99.90;;;;;;5066811;28;20055;-79
2021/08/29 04:15:23;;;;;;;8.90;4.38;;;15.70;99.90;;;;;;5070736;28;20032;-78
2021/08/29 04:17:50;;;;;;;10.57;3.75;;;15.70;99.90;;;;;;5048751;28;20038;-78
2021/08/29 04:20:18;;;;;;;7.30;3.17;;;15.70;99.90;;;;;;5031718;28;20510;-78
2021/08/29 04:22:45;;;;;;;5.68;3.42;;;15.70;99.90;;;;;;5050219;28;20054;-78
2021/08/29 04:25:12;;;;;;;9.23;2.92;;;15.70;99.90;;;;;;5066372;28;20503;-77
2021/08/29 04:27:41;;;;;;;7.63;2.83;;;15.70;99.90;;;;;;5047255;28;20455;-78
2021/08/29 04:30:08;;;;;;;7.80;2.45;;;15.70;99.90;;;;;;5051208;28;20035;-78
2021/08/29 04:32:40;;;;;;;7.95;2.08;;;15.70;99.90;;;;;;5035777;28;20055;-78
2021/08/29 04:35:11;;;;;;;7.35;2.60;;;15.70;99.90;;;;;;5051758;28;20032;-78
2021/08/29 04:37:42;;;;;;;6.05;2.17;;;15.70;99.90;;;;;;5065678;28;21257;-78
2021/08/29 04:40:15;;;;;;;8.38;2.20;;;15.70;99.90;;;;;;5052691;28;20047;-78
2021/08/29 04:42:56;;;;;;;8.95;2.70;;;15.70;99.90;;;;;;5057506;28;20044;-77
2021/08/29 04:45:26;;;;;;;5.38;1.83;;;15.80;99.90;;;;;;5056572;28;20043;-78
2021/08/29 04:47:56;;;;;;;5.03;1.90;;;15.70;99.90;;;;;;5022686;28;20517;-78
2021/08/29 04:50:23;;;;;;;9.52;2.78;;;15.80;99.90;;;;;;5048785;28;20399;-78
2021/08/29 04:52:49;;;;;;;10.90;2.25;;;15.80;99.90;;;;;;5066057;28;20027;-78
2021/08/29 04:55:16;;;;;;;7.35;2.25;;;15.80;99.90;;;;;;5077530;28;20379;-78
2021/08/29 04:57:43;;;;;;;11.70;2.65;;;15.80;99.90;;;;;;5048281;28;20507;-78
2021/08/29 05:00:10;;;;;;;5.43;1.63;;;15.80;99.90;;;;;;5051970;28;20043;-78
2021/08/29 05:02:36;;;;;;;8.70;1.60;;;15.80;99.90;;;;;;5031959;28;20219;-78
2021/08/29 05:05:03;;;;;;;10.93;2.30;;;15.90;99.90;;;;;;5084567;28;20048;-78
2021/08/29 05:07:30;;;;;;;7.68;1.85;;;15.90;99.90;;;;;;5034219;28;20047;-78
2021/08/29 05:09:57;;;;;;;6.03;1.60;;;15.90;99.90;;;;;;5048535;28;20498;-78
2021/08/29 05:12:24;;;;;;;6.40;1.60;;;15.90;99.90;;;;;;5051379;28;20475;-78
2021/08/29 05:14:51;;;;;;;8.30;1.63;;;16.00;99.90;;;;;;5065798;28;20474;-78
2021/08/29 05:17:18;;;;;;;6.57;1.63;;;16.00;99.90;;;;;;5031574;28;20043;-81
2021/08/29 05:19:51;;;;;;;8.48;1.50;;;16.00;99.90;;;;;;5032958;28;20051;-79
2021/08/29 05:22:36;;;;;;;5.05;1.40;;;16.00;99.90;;;;;;5084251;28;20043;-80
2021/08/29 05:25:21;;;;;;;6.22;1.63;;;16.10;99.90;;;;;;5084190;28;20047;-80
2021/08/29 05:27:49;;;;;;;11.98;2.60;;;16.10;99.90;;;;;;5045327;28;20040;-80
2021/08/29 05:30:15;;;;;;;6.78;1.85;;;16.10;99.90;;;;;;5050597;28;20029;-82
2021/08/29 05:32:42;;;;;;;9.40;2.20;;;16.20;99.90;;;;;;5036843;28;20505;-81
2021/08/29 05:35:09;;;;;;;10.55;3.72;;;16.20;99.90;;;;;;5019758;28;20059;-82
2021/08/29 05:37:35;;;;;;;12.30;4.43;;;16.20;99.90;;;;;;5066002;28;20043;-81
2021/08/29 05:40:34;;;;;;;8.88;3.25;;;16.20;99.90;;;;;;5073411;28;20055;-81
2021/08/29 05:43:23;;;;;;;10.27;2.13;;;16.30;99.90;;;;;;5048032;28;20051;-81
2021/08/29 05:45:50;;;;;;;13.85;2.47;;;16.30;99.90;;;;;;5067787;28;20036;-81
2021/08/29 05:48:16;;;;;;;8.07;2.08;;;16.30;99.90;;;;;;5065050;28;20028;-81
2021/08/29 05:50:43;;;;;;;10.52;1.88;;;16.30;99.90;;;;;;5034798;28;20044;-81
2021/08/29 05:53:10;;;;;;;9.18;2.03;;;16.40;99.90;;;;;;5034657;28;20079;-81
2021/08/29 05:55:37;;;;;;;10.85;1.70;;;16.40;99.90;;;;;;5068441;28;20032;-81
2021/08/29 05:58:04;;;;;;;8.75;1.55;;;16.40;99.90;;;;;;5050649;28;20044;-83
2021/08/29 06:00:31;;;;;;;11.52;2.15;;;16.50;99.90;;;;;;5069354;28;20040;-84
2021/08/29 06:03:00;;;;;;;14.27;2.50;;;16.50;99.90;;;;;;5051849;28;20040;-84
2021/08/29 06:05:27;;;;;;;10.60;3.13;;;16.50;99.90;;;;;;5034266;28;20044;-84
2021/08/29 06:08:03;;;;;;;11.05;2.95;;;16.50;99.90;;;;;;5034939;28;20048;-85
2021/08/29 06:10:30;;;;;;;9.65;2.25;;;16.50;99.90;;;;;;5035458;28;20028;-83
2021/08/29 06:12:57;;;;;;;7.72;1.95;;;16.50;99.90;;;;;;5066810;28;20028;-84
2021/08/29 06:15:24;;;;;;;11.30;2.03;;;16.60;99.90;;;;;;5035211;28;20047;-82
2021/08/29 06:17:50;;;;;;;10.02;2.05;;;16.60;99.90;;;;;;5018047;28;20525;-84
2021/08/29 06:20:17;;;;;;;9.55;1.63;;;16.60;99.90;;;;;;5052112;28;20055;-84
2021/08/29 06:22:44;;;;;;;7.75;1.70;;;16.70;99.90;;;;;;5051785;28;20040;-82
2021/08/29 06:25:30;;;;;;;8.07;1.90;;;16.70;99.90;;;;;;5056910;28;20375;-84
2021/08/29 06:28:23;;;;;;;8.70;1.92;;;16.70;99.90;;;;;;5027827;28;20090;-80
2021/08/29 06:31:13;;;;;;;9.52;2.00;;;16.70;99.90;;;;;;5087472;28;20166;-81
2021/08/29 06:33:58;;;;;;;8.38;1.75;;;16.80;99.90;;;;;;5084243;28;20036;-80
2021/08/29 06:36:26;;;;;;;6.45;1.52;;;16.80;99.90;;;;;;5050838;28;20043;-81
2021/08/29 06:38:57;;;;;;;8.07;2.15;;;16.90;99.90;;;;;;5050691;28;20040;-81
2021/08/29 06:41:24;;;;;;;10.80;1.83;;;16.90;99.90;;;;;;5067263;28;20064;-91
2021/08/29 06:43:53;;;;;;;6.22;1.33;;;16.90;99.90;;;;;;5036114;28;20051;-90
2021/08/29 06:46:38;;;;;;;10.30;1.63;;;17.00;99.90;;;;;;5049929;28;20044;-90
2021/08/29 06:49:23;;;;;;;9.63;3.00;;;17.00;99.90;;;;;;5084477;28;20498;-89
2021/08/29 06:52:25;;;;;;;11.27;3.60;;;17.10;99.90;;;;;;4978931;28;20394;-89
2021/08/29 06:55:10;;;;;;;11.65;2.05;;;17.10;99.90;;;;;;5056634;28;20063;-92
2021/08/29 06:57:54;;;;;;;9.02;1.83;;;17.20;99.90;;;;;;5057379;28;20043;-91
2021/08/29 07:00:21;;;;;;;10.57;2.00;;;17.20;99.90;;;;;;5027016;28;20510;-91
2021/08/29 07:02:48;;;;;;;7.13;2.03;;;17.20;99.90;;;;;;5035002;28;20040;-89
2021/08/29 07:05:15;;;;;;;13.18;1.73;;;17.30;99.90;;;;;;5033282;28;20044;-90
2021/08/29 07:08:01;;;;;;;6.13;1.40;;;17.30;99.90;;;;;;5057623;28;20051;-92
2021/08/29 07:10:33;;;;;;;7.10;1.50;;;17.40;99.90;;;;;;5070626;28;20043;-92
2021/08/29 07:13:18;;;;;;;10.23;1.83;;;17.40;99.90;;;;;;5041379;28;20048;-92
2021/08/29 07:15:44;;;;;;;9.90;2.63;;;17.40;99.90;;;;;;5035596;28;20040;-90
2021/08/29 07:18:11;;;;;;;8.55;1.42;;;17.30;99.90;;;;;;5003527;28;20511;-91
2021/08/29 07:20:57;;;;;;;7.80;1.70;;;17.20;99.90;;;;;;5026233;28;20478;-89
2021/08/29 07:23:43;;;;;;;10.60;1.98;;;17.20;99.90;;;;;;5039670;28;20040;-87
2021/08/29 07:26:29;;;;;;;8.73;1.80;;;17.20;99.90;;;;;;5071095;28;20039;-90
2021/08/29 07:29:25;;;;;;;9.52;3.08;;;17.20;99.90;;;;;;4973435;28;20494;-91
2021/08/29 07:32:10;;;;;;;8.73;1.90;;;17.20;99.90;;;;;;5040785;28;20048;-90
2021/08/29 07:34:40;;;;;;;11.73;2.00;;;17.20;99.90;;;;;;5051981;28;20050;-88
2021/08/29 07:37:25;;;;;;;6.85;1.33;;;17.20;99.90;;;;;;5050123;28;20040;-88
2021/08/29 07:39:54;;;;;;;8.63;1.55;;;17.30;99.90;;;;;;5069734;28;20032;-87
2021/08/29 07:42:21;;;;;;;13.10;2.25;;;17.30;99.90;;;;;;5017892;28;20040;-88
2021/08/29 07:44:48;;;;;;;8.63;1.42;;;17.30;99.90;;;;;;5049175;28;20051;-88
2021/08/29 07:47:19;;;;;;;7.57;1.73;;;17.30;99.90;;;;;;5046517;28;20048;-87
2021/08/29 07:49:46;;;;;;;10.80;2.63;;;17.20;99.90;;;;;;5032813;28;20040;-88
2021/08/29 07:52:12;;;;;;;10.85;2.35;;;17.20;99.90;;;;;;5033711;28;20036;-87
2021/08/29 07:55:08;;;;;;;7.70;1.30;;;17.20;99.90;;;;;;4966761;28;20038;-86
2021/08/29 07:57:53;;;;;;;7.95;2.22;;;17.10;99.90;;;;;;5045623;28;20475;-91
2021/08/29 08:00:28;;;;;;;8.52;1.60;;;17.00;99.90;;;;;;5028776;28;20045;-90
2021/08/29 08:03:27;;;;;;;7.55;1.88;;;16.90;99.90;;;;;;5020045;28;20048;-91
2021/08/29 08:06:12;;;;;;;7.95;1.73;;;16.80;99.90;;;;;;5028301;28;20071;-91
2021/08/29 08:08:41;;;;;;;6.30;1.40;;;16.70;99.90;;;;;;5034521;28;20048;-90
2021/08/29 08:11:26;;;;;;;8.57;1.25;;;16.70;99.90;;;;;;5041764;28;20490;-87
2021/08/29 08:13:53;;;;;;;10.02;1.58;;;16.80;99.90;;;;;;5018655;28;20388;-89
2021/08/29 08:16:19;;;;;;;9.73;2.13;;;16.80;99.90;;;;;;5032116;28;20059;-88
2021/08/29 08:18:48;;;;;;;10.43;1.48;;;16.80;99.90;;;;;;5039097;28;20052;-88
2021/08/29 08:21:16;;;;;;;9.60;2.08;;;16.80;99.90;;;;;;5068775;28;20028;-89
2021/08/29 08:23:46;;;;;;;11.60;2.40;;;16.70;99.90;;;;;;5069467;28;20032;-87
2021/08/29 08:26:28;;;;;;;12.82;2.95;;;16.80;99.90;;;;;;5055315;28;20387;-89
2021/08/29 08:29:13;;;;;;;7.47;2.45;;;16.70;99.90;;;;;;5054110;28;20044;-87
2021/08/29 08:31:58;;;;;;;7.90;2.25;;;16.70;99.90;;;;;;5047151;28;20040;-86
2021/08/29 08:34:48;;;;;;;5.80;1.20;;;16.60;99.90;;;;;;5064627;28;20384;-89
2021/08/29 08:37:33;;;;;;;6.70;1.40;;;16.50;99.90;;;;;;5037971;28;20294;-84
2021/08/29 08:40:06;;;;;;;6.97;1.63;;;16.50;99.90;;;;;;5035791;28;20487;-84
2021/08/29 08:42:47;;;;;;;5.10;1.98;;;16.40;99.90;;;;;;5054669;28;20056;-82
2021/08/29 08:45:35;;;;;;;5.80;1.55;;;16.40;99.90;;;;;;5067257;28;20039;-81
2021/08/29 08:48:21;;;;;;;4.95;1.33;;;16.40;99.90;;;;;;5039395;28;20045;-79
2021/08/29 08:51:11;;;;;;;3.67;1.13;;;16.40;99.90;;;;;;5051822;28;20051;-79
2021/08/29 08:53:59;;;;;;;4.95;1.48;;;16.40;99.90;;;;;;5067803;28;20044;-81
2021/08/29 08:56:38;;;;;;;8.10;1.58;;;16.50;99.90;;;;;;5084897;28;20098;-82
2021/08/29 08:59:23;;;;;;;5.75;1.42;;;16.50;99.90;;;;;;5055919;28;20479;-85
2021/08/29 09:01:52;;;;;;;6.57;1.20;;;16.60;99.90;;;;;;5068564;28;20032;-85
2021/08/29 09:04:41;;;;;;;6.18;1.60;;;16.60;99.90;;;;;;5056099;28;20544;-82
2021/08/29 09:07:09;;;;;;;9.32;1.67;;;16.50;99.90;;;;;;5050637;28;20062;-80
2021/08/29 09:09:36;;;;;;;6.22;1.52;;;16.60;99.90;;;;;;5045317;28;20050;-77
2021/08/29 09:12:04;;;;;;;6.70;1.58;;;16.60;99.90;;;;;;5079029;28;20037;-77
2021/08/29 09:14:46;;;;;;;4.68;1.13;;;16.60;99.90;;;;;;5028725;28;20048;-80
2021/08/29 09:17:29;;;;;;;8.02;1.38;;;16.50;99.90;;;;;;5059305;28;20032;-79
2021/08/29 09:20:13;;;;;;;5.80;1.25;;;16.60;99.90;;;;;;5064907;28;20513;-80
2021/08/29 09:22:43;;;;;;;7.32;1.50;;;16.60;99.90;;;;;;5048566;28;20493;-79
2021/08/29 09:25:30;;;;;;;9.10;1.95;;;16.60;99.90;;;;;;5082371;28;20039;-80
2021/08/29 09:28:12;;;;;;;;;;;16.70;99.90;;;;;;5064561;28;20035;-80
2021/08/29 09:30:50;;;;;;;11.63;1.80;;;16.60;99.90;;;;;;5046563;28;20361;-80
2021/08/29 09:33:19;;;;;;;8.35;2.05;;;16.60;99.90;;;;;;5046091;28;20376;-80
2021/08/29 09:35:52;;;;;;;8.57;1.67;;;16.60;99.90;;;;;;5040630;28;20044;-80
2021/08/29 09:38:42;;;;;;;9.38;1.63;;;16.60;99.90;;;;;;5041364;28;20041;-80
2021/08/29 09:41:29;;;;;;;8.73;1.20;;;16.60;99.90;;;;;;5067628;28;20049;-81
2021/08/29 09:44:17;;;;;;;12.68;1.88;;;16.60;99.90;;;;;;5055814;28;20025;-80
2021/08/29 09:47:02;;;;;;;10.50;1.80;;;16.50;99.90;;;;;;5038022;28;20047;-80
2021/08/29 09:49:50;;;;;;;5.78;1.20;;;16.50;99.90;;;;;;5062804;28;20020;-81
2021/08/29 09:52:27;;;;;;;9.40;1.55;;;16.50;99.90;;;;;;5055350;28;20024;-81
2021/08/29 09:55:12;;;;;;;5.65;0.80;;;16.60;99.90;;;;;;5037944;28;20047;-80
2021/08/29 09:57:59;;;;;;;7.32;1.65;;;16.60;99.90;;;;;;5029675;28;20044;-80
2021/08/29 10:01:13;;;;;;;5.55;0.93;;;16.70;99.90;;;;;;5039168;28;20377;-80
2021/08/29 10:03:51;;;;;;;4.78;1.45;;;16.70;99.90;;;;;;5028635;28;20348;-80
2021/08/29 10:06:21;;;;;;;6.38;1.02;;;16.70;99.90;;;;;;5032547;28;20407;-80
2021/08/29 10:08:50;;;;;;;4.07;0.80;;;16.70;99.90;;;;;;5036467;28;20420;-80
2021/08/29 10:11:38;;;;;;;3.75;0.60;;;16.70;99.90;;;;;;5027757;28;20040;-80
2021/08/29 10:14:06;;;;;;;6.63;1.15;;;16.70;99.90;;;;;;5033097;28;20452;-80
2021/08/29 10:16:40;;;;;;;3.83;0.90;;;16.60;99.90;;;;;;5041359;28;20040;-80
2021/08/29 10:19:28;;;;;;;5.95;1.00;;;16.70;99.90;;;;;;5075110;28;20495;-80
2021/08/29 10:22:29;;;;;;;4.55;0.88;;;16.70;99.90;;;;;;5069139;28;20043;-80
2021/08/29 10:24:57;;;;;;;4.90;1.00;;;16.80;99.90;;;;;;5056686;28;20047;-80
2021/08/29 10:27:24;;;;;;;5.15;1.00;;;16.80;99.90;;;;;;5053623;28;20047;-80
2021/08/29 10:30:31;;;;;;;6.15;1.30;;;16.90;99.90;;;;;;4993112;28;20050;-80
2021/08/29 10:33:18;;;;;;;7.07;1.42;;;16.90;99.90;;;;;;4988118;28;20046;-80
2021/08/29 10:35:54;;;;;;;5.88;0.90;;;17.00;99.90;;;;;;5020142;28;20052;-78
2021/08/29 10:38:56;;;;;;;6.90;1.20;;;17.00;99.90;;;;;;4989647;28;20048;-79
2021/08/29 10:41:36;;;;;;;4.32;1.10;;;16.90;99.90;;;;;;5054260;28;20051;-79
2021/08/29 10:44:13;;;;;;;3.88;0.93;;;16.90;99.90;;;;;;5053896;28;20487;-78
2021/08/29 10:47:00;;;;;;;3.47;1.00;;;16.90;99.90;;;;;;5089267;28;20471;-78
2021/08/29 10:49:46;;;;;;;4.95;0.68;;;16.90;99.90;;;;;;5087551;28;20035;-78
2021/08/29 10:52:13;;;;;;;10.45;1.50;;;16.90;99.90;;;;;;5071070;28;20040;-78
2021/08/29 10:54:54;;;;;;;3.25;0.93;;;16.90;99.90;;;;;;5052735;28;20055;-78
2021/08/29 10:57:31;;;;;;;3.83;0.90;;;16.90;99.90;;;;;;5053670;28;20040;-81
2021/08/29 11:00:08;;;;;;;3.70;0.80;;;16.90;99.90;;;;;;5084276;28;20040;-80
2021/08/29 11:02:37;;;;;;;1.80;0.60;;;16.90;99.90;;;;;;5078802;28;20036;-83
2021/08/29 11:05:28;;;;;;;4.13;1.02;;;17.00;99.90;;;;;;5061146;28;20048;-82
2021/08/29 11:07:59;;;;;;;2.67;0.93;;;17.10;99.90;;;;;;5072142;28;20494;-82
2021/08/29 11:10:38;;;;;;;1.90;0.50;;;17.10;99.90;;;;;;5088275;28;20035;-84
2021/08/29 11:13:39;;;;;;;2.13;0.55;;;17.10;99.90;;;;;;5070178;28;20502;-83
2021/08/29 11:16:14;;;;;;;2.55;0.88;;;17.10;99.90;;;;;;5086631;28;20059;-81
2021/08/29 11:19:11;;;;;;;2.42;0.50;;;17.20;99.90;;;;;;5012331;28;20132;-81
2021/08/29 11:22:02;;;;;;;1.73;0.40;;;17.20;99.90;;;;;;5085282;28;20028;-80
2021/08/29 11:25:03;;;;;;;1.17;0.30;;;17.20;99.90;;;;;;5088258;28;20494;-80
2021/08/29 11:27:39;;;;;;;1.10;0.40;;;17.20;99.90;;;;;;5057771;28;20040;-80
2021/08/29 11:30:40;;;;;;;1.88;0.50;;;17.20;99.90;;;;;;5085818;28;20028;-81
2021/08/29 11:33:24;;;;;;;0.70;0.30;;;17.30;99.90;;;;;;5080863;28;20035;-81
2021/08/29 11:35:54;;;;;;;3.20;1.48;;;17.20;99.90;;;;;;5075758;28;20028;-78
2021/08/29 11:38:47;;;;;;;;;;;17.20;99.90;;;;;;5056900;28;20059;-78
2021/08/29 11:41:15;;;;;;;2.00;0.80;;;17.20;99.90;;;;;;5071411;28;19924;-78
2021/08/29 11:43:49;;;;;;;2.22;1.50;;;17.20;99.90;;;;;;5061138;28;20067;-78
2021/08/29 11:46:23;;;;;;;1.90;1.25;;;17.20;99.90;;;;;;5086616;28;20047;-80
2021/08/29 11:49:21;;;;;;;1.65;0.52;;;17.10;99.90;;;;;;5051873;28;20048;-79
2021/08/29 11:51:54;;;;;;;0.88;0.40;;;17.30;99.90;;;;;;5073498;28;20032;-79
2021/08/29 11:54:25;;;;;;;1.33;0.38;;;17.30;99.90;;;;;;5070169;28;20495;-77
2021/08/29 11:56:59;;;;;;;5.07;0.50;;;17.50;99.90;;;;;;5082543;28;20039;-81
2021/08/29 11:59:32;;;;;;;2.20;0.57;;;17.60;99.90;;;;;;5067380;28;20055;-79
2021/08/29 12:02:01;;;;;;;2.40;0.60;;;17.60;99.90;;;;;;5085588;28;20032;-78
2021/08/29 12:04:34;;;;;;;2.13;0.50;;;17.60;99.90;;;;;;5055540;28;20121;-79
2021/08/29 12:07:20;;;;;;;1.90;0.47;;;17.60;99.90;;;;;;5086406;28;20043;-78
2021/08/29 12:10:06;;;;;;;1.88;0.60;;;17.60;99.90;;;;;;5056173;28;20043;-78
2021/08/29 12:12:52;;;;;;;3.03;0.60;;;17.50;99.90;;;;;;5086905;28;20040;-78
2021/08/29 12:15:55;;;;;;;1.35;0.60;;;17.50;99.90;;;;;;5016435;28;20057;-79
2021/08/29 12:18:47;;;;;;;2.50;1.55;;;17.60;99.90;;;;;;5084702;28;20043;-78
2021/08/29 12:21:21;;;;;;;3.50;1.10;;;17.60;99.90;;;;;;5069669;28;20032;-78
2021/08/29 12:24:06;;;;;;;3.30;1.13;;;17.60;99.90;;;;;;5081989;28;20377;-78
2021/08/29 12:26:37;;;;;;;3.58;1.00;;;17.70;99.90;;;;;;5072439;28;20044;-77
2021/08/29 12:29:07;;;;;;;2.95;0.90;;;17.80;99.90;;;;;;5056614;28;20047;-77
2021/08/29 12:31:38;;;;;;;3.28;0.98;;;17.80;99.90;;;;;;5040379;28;20921;-77
2021/08/29 12:34:06;;;;;;;;;;;17.90;99.90;;;;;;5065538;28;20030;-77
2021/08/29 12:36:33;;;;;;;5.15;2.00;;;17.90;99.90;;;;;;5070194;28;19919;-77
2021/08/29 12:39:01;;;;;;;5.95;1.55;;;17.90;99.90;;;;;;5050921;28;20354;-78
2021/08/29 12:41:27;;;;;;;3.97;1.58;;;17.80;99.90;;;;;;5068203;28;20040;-77
2021/08/29 12:44:04;;;;;;;4.30;2.00;;;17.80;99.90;;;;;;5088518;28;20391;-77
2021/08/29 12:46:31;;;;;;;5.50;1.92;;;17.90;99.90;;;;;;5067269;28;20499;-77
2021/08/29 12:48:58;;;;;;;6.50;1.80;;;17.90;99.90;;;;;;5067547;28;20032;-77
2021/08/29 12:51:25;;;;;;;5.47;2.13;;;18.00;99.90;;;;;;5068899;28;20378;-78
2021/08/29 12:54:00;;;;;;;4.80;2.38;;;18.10;99.90;;;;;;5051488;28;20048;-78
2021/08/29 12:56:26;;;;;;;6.03;1.88;;;18.10;99.90;;;;;;5069587;28;20048;-78
2021/08/29 12:58:53;;;;;;;5.50;2.33;;;18.30;99.90;;;;;;5085539;28;20032;-78
2021/08/29 13:01:19;;;;;;;5.00;2.42;;;18.30;99.90;;;;;;5076711;28;20468;-77
2021/08/29 13:03:52;;;;;;;5.15;2.50;;;18.30;99.90;;;;;;5090928;28;20032;-77
2021/08/29 13:06:20;;;;;;;4.07;1.77;;;18.40;99.90;;;;;;5083479;28;20039;-77
2021/08/29 13:08:52;;;;;;;3.20;1.77;;;18.50;99.90;;;;;;5089006;28;20028;-77
2021/08/29 13:11:21;;;;;;;4.75;1.90;;;18.50;99.90;;;;;;5084665;28;20040;-77
2021/08/29 13:13:51;;;;;;;4.38;1.80;;;18.50;99.90;;;;;;5095020;28;20056;-77
2021/08/29 13:16:18;;;;;;;3.65;1.40;;;18.60;99.90;;;;;;5037451;28;20468;-77
2021/08/29 13:18:47;;;;;;;2.15;1.00;;;18.60;99.90;;;;;;5092803;28;20064;-77
2021/08/29 13:21:20;;;;;;;3.22;1.00;;;18.60;99.90;;;;;;5092538;28;20482;-76
2021/08/29 13:23:46;;;;;;;2.55;0.90;;;18.60;99.90;;;;;;5091566;28;20038;-77